Time;durP1;ratioP1;P1;durP2;ratioP2;P2;SDS_P1;SDS_P2;PMS_P1;PMS_P2;Temp;Humidity;BMP_temperature;BMP_pressure;BME280_temperature;BME280_humidity;BME280_pressure;Samples;Min_cycle;Max_cycle;Signal;HPM_P1;HPM_P2
2022/01/24 00:00:23;;;;;;;32.20;16.40;;;;;;;-4.80;79.14;102382.92;88279;1274;89485;-62
2022/01/24 00:02:50;;;;;;;29.50;15.80;;;;;;;-4.76;78.94;102380.89;88242;1273;95067;-61
2022/01/24 00:04:59;;;;;;;28.60;16.30;;;;;;;-4.78;78.72;102380.73;88295;1274;78301;-62
2022/01/24 00:07:14;;;;;;;32.30;16.70;;;;;;;-4.81;78.76;102380.14;88310;1273;83095;-62
2022/01/24 00:09:24;;;;;;;33.70;17.40;;;;;;;-4.83;78.74;102376.69;88299;1274;97712;-61
2022/01/24 00:11:42;;;;;;;31.20;15.80;;;;;;;-4.85;78.66;102381.32;88321;1274;87314;-61
2022/01/24 00:16:34;;;;;;;31.00;16.10;;;;;;;-4.93;78.72;102391.91;88290;1274;79434;-61
2022/01/24 00:28:40;;;;;;;32.20;16.30;;;;;;;-4.77;79.21;102398.65;88266;1272;79965;-70
2022/01/24 00:30:53;;;;;;;34.50;16.60;;;;;;;-4.69;79.35;102397.37;88296;1274;81286;-62
2022/01/24 00:33:02;;;;;;;33.30;16.90;;;;;;;-4.61;79.45;102401.72;88278;1274;99102;-62
2022/01/24 00:35:14;;;;;;;34.00;17.70;;;;;;;-4.55;79.40;102402.05;88284;1274;89951;-61
2022/01/24 00:37:23;;;;;;;30.00;17.50;;;;;;;-4.45;79.07;102397.19;88313;1274;92933;-69
2022/01/24 00:39:36;;;;;;;33.70;17.70;;;;;;;-4.35;79.22;102394.44;88261;1273;77844;-69
2022/01/24 00:41:51;;;;;;;31.20;16.60;;;;;;;-4.31;79.23;102396.42;88253;1273;81158;-61
2022/01/24 00:44:25;;;;;;;30.00;16.80;;;;;;;-4.28;79.47;102394.77;88304;1274;97558;-61
2022/01/24 00:46:37;;;;;;;30.70;16.60;;;;;;;-4.15;79.12;102395.06;88308;1274;88743;-69
2022/01/24 00:49:14;;;;;;;37.60;19.40;;;;;;;-4.13;79.06;102399.55;88296;1274;94080;-72
2022/01/24 00:54:42;;;;;;;34.50;18.10;;;;;;;-4.12;78.62;102390.23;88265;1274;81642;-70
2022/01/24 00:56:35;;;;;;;36.00;17.50;;;;;;;-4.11;78.56;102382.97;88268;1273;97227;-70
2022/01/24 00:58:44;;;;;;;38.00;20.20;;;;;;;-4.10;78.43;102383.48;88258;1273;88775;-70
2022/01/24 01:00:58;;;;;;;35.10;18.20;;;;;;;-4.12;78.48;102383.34;88292;1274;94854;-61
2022/01/24 01:03:06;;;;;;;;;;;;;;;-4.13;78.53;102386.73;88316;1274;77794;-62
2022/01/24 01:05:35;;;;;;;31.50;16.60;;;;;;;-4.13;78.27;102388.85;88295;1273;81606;-61
2022/01/24 01:07:56;;;;;;;34.10;18.40;;;;;;;-4.14;78.33;102380.77;88275;1274;99342;-71
2022/01/24 01:20:01;;;;;;;35.70;17.70;;;;;;;-3.97;77.95;102368.82;88249;1273;98422;-69
2022/01/24 01:22:11;;;;;;;32.80;17.50;;;;;;;-3.91;77.79;102367.39;88272;1273;89115;-61
2022/01/24 01:24:21;;;;;;;33.40;18.30;;;;;;;-3.85;77.88;102373.67;88270;1273;94956;-61
2022/01/24 01:26:37;;;;;;;31.40;16.70;;;;;;;-3.77;77.52;102375.20;88311;1273;81122;-69
2022/01/24 01:28:51;;;;;;;36.40;17.90;;;;;;;-3.66;77.38;102375.17;88281;1272;80761;-69
2022/01/24 01:31:08;;;;;;;28.60;16.10;;;;;;;-3.60;77.28;102368.80;88284;1274;98749;-69
2022/01/24 01:33:30;;;;;;;36.00;18.30;;;;;;;-3.52;77.05;102369.75;88198;1273;87808;-69
2022/01/24 01:35:59;;;;;;;32.10;17.50;;;;;;;-3.46;76.94;102371.16;88267;1274;95192;-70
2022/01/24 01:53:31;;;;;;;31.80;16.90;;;;;;;-3.51;76.40;102370.97;88288;1274;81445;-60
2022/01/24 01:55:41;;;;;;;28.00;15.80;;;;;;;-3.53;76.29;102373.31;88322;1274;96226;-61
2022/01/24 01:57:51;;;;;;;33.60;17.30;;;;;;;-3.53;76.35;102383.89;88294;1274;88884;-63
2022/01/24 02:00:01;;;;;;;30.70;16.30;;;;;;;-3.54;76.11;102384.08;88241;1273;94465;-61
2022/01/24 02:02:11;;;;;;;29.40;15.80;;;;;;;-3.54;76.12;102384.79;88323;1274;78793;-70
2022/01/24 02:04:21;;;;;;;29.30;15.60;;;;;;;-3.55;76.10;102386.96;88284;1273;81246;-69
2022/01/24 02:06:32;;;;;;;31.50;16.70;;;;;;;-3.55;76.24;102386.26;88250;1273;99143;-61
2022/01/24 02:08:42;;;;;;;31.70;15.90;;;;;;;-3.55;76.14;102388.89;88292;1272;88303;-61
2022/01/24 02:10:55;;;;;;;28.50;15.20;;;;;;;-3.51;76.17;102388.05;88200;1273;95050;-61
2022/01/24 02:13:06;;;;;;;31.00;16.00;;;;;;;-3.46;76.04;102382.77;88290;1274;79924;-61
2022/01/24 02:15:22;;;;;;;27.70;15.00;;;;;;;-3.39;76.13;102379.00;88310;1274;80433;-60
2022/01/24 02:17:43;;;;;;;28.00;15.70;;;;;;;-3.31;76.11;102370.64;88286;1273;97474;-61
2022/01/24 02:20:08;;;;;;;31.10;16.00;;;;;;;-3.25;75.95;102370.92;88285;1274;89211;-61
2022/01/24 02:24:57;;;;;;;31.60;15.80;;;;;;;-3.17;75.65;102379.80;88266;1274;79668;-61
2022/01/24 02:27:08;;;;;;;32.90;16.70;;;;;;;-3.17;75.44;102382.45;88291;1274;82496;-70
2022/01/24 02:29:28;;;;;;;29.60;16.30;;;;;;;-3.18;75.45;102385.50;88293;1273;100129;-70
2022/01/24 02:31:43;;;;;;;32.50;17.00;;;;;;;-3.19;75.19;102385.02;88284;1273;89315;-61
2022/01/24 02:33:53;;;;;;;30.70;17.00;;;;;;;-3.19;75.17;102385.52;88296;1273;95002;-61
2022/01/24 02:36:08;;;;;;;34.40;18.00;;;;;;;-3.21;75.31;102382.25;88294;1274;76738;-61
2022/01/24 02:38:34;;;;;;;35.40;18.80;;;;;;;-3.23;75.15;102382.32;88314;1274;79551;-61
2022/01/24 02:48:23;;;;;;;30.80;17.00;;;;;;;-3.29;74.88;102385.52;88256;1273;94216;-60
2022/01/24 02:48:49;;;;;;;32.90;16.70;;;;;;;-3.30;75.13;102382.77;88295;1274;77145;-60
2022/01/24 02:53:36;;;;;;;33.00;17.20;;;;;;;-3.34;74.73;102385.16;88128;1274;100411;-70
2022/01/24 02:55:50;;;;;;;33.60;17.70;;;;;;;-3.35;74.84;102384.70;88292;1274;89274;-70
2022/01/24 02:57:58;;;;;;;;;;;;;;;-3.37;74.70;102380.70;88315;1274;93861;-70
2022/01/24 03:00:09;;;;;;;29.20;15.10;;;;;;;-3.38;74.82;102381.98;88236;1273;80676;-69
2022/01/24 03:02:21;;;;;;;32.90;16.80;;;;;;;-3.38;74.88;102385.48;88284;1273;80995;-69
2022/01/24 03:04:38;;;;;;;30.80;16.70;;;;;;;-3.35;74.81;102383.42;88274;1274;100278;-70
2022/01/24 03:06:47;;;;;;;33.70;16.90;;;;;;;-3.30;74.70;102380.10;88249;1273;87467;-61
2022/01/24 03:08:56;;;;;;;31.90;15.60;;;;;;;-3.25;74.92;102375.69;88259;1273;95792;-61
2022/01/24 03:11:14;;;;;;;30.90;16.80;;;;;;;-3.20;74.89;102378.54;88280;1273;77192;-62
2022/01/24 03:13:34;;;;;;;32.20;16.70;;;;;;;-3.12;74.83;102380.86;88336;1274;79826;-62
2022/01/24 03:15:58;;;;;;;28.10;16.00;;;;;;;-3.05;74.75;102383.11;88312;1274;99084;-62
2022/01/24 03:18:11;;;;;;;26.70;16.00;;;;;;;-3.01;74.73;102380.11;88310;1274;87502;-63
2022/01/24 03:20:33;;;;;;;32.10;16.40;;;;;;;-2.99;74.64;102376.70;88293;1274;94586;-64
2022/01/24 03:22:43;;;;;;;30.80;16.40;;;;;;;-2.99;74.33;102381.11;88290;1274;78208;-70
2022/01/24 03:24:52;;;;;;;27.20;14.70;;;;;;;-2.99;74.53;102381.48;88301;1273;82780;-70
2022/01/24 03:27:08;;;;;;;30.30;15.80;;;;;;;-2.99;74.26;102383.92;88253;1274;100000;-61
2022/01/24 03:29:18;;;;;;;34.00;16.00;;;;;;;-3.00;74.34;102383.27;88283;1274;88062;-62
2022/01/24 03:31:27;;;;;;;30.00;16.70;;;;;;;-3.03;74.63;102382.47;88297;1274;94631;-62
2022/01/24 03:33:40;;;;;;;27.00;16.10;;;;;;;-3.05;74.27;102382.40;88280;1273;77816;-61
2022/01/24 03:35:50;;;;;;;28.90;15.80;;;;;;;-3.07;74.08;102381.91;88317;1274;83241;-62
2022/01/24 03:38:00;;;;;;;27.20;15.10;;;;;;;-3.09;74.22;102374.08;88296;1274;99956;-62
2022/01/24 03:40:26;;;;;;;30.50;14.80;;;;;;;-3.11;74.55;102369.89;88291;1274;88843;-62
2022/01/24 03:42:37;;;;;;;29.00;14.50;;;;;;;-3.13;74.69;102373.15;88238;1273;95094;-70
2022/01/24 03:44:55;;;;;;;28.60;15.70;;;;;;;-3.17;74.28;102373.29;88285;1274;78862;-70
2022/01/24 03:47:30;;;;;;;27.90;14.50;;;;;;;-3.18;74.14;102374.21;88299;1274;82521;-69
2022/01/24 03:49:48;;;;;;;27.10;14.40;;;;;;;-3.17;74.43;102372.08;88203;1273;99691;-71
2022/01/24 03:52:09;;;;;;;32.00;16.00;;;;;;;-3.16;74.37;102370.98;88153;1274;89344;-69
2022/01/24 03:54:18;;;;;;;29.20;15.60;;;;;;;-3.14;74.39;102374.61;88273;1274;92804;-70
2022/01/24 03:56:28;;;;;;;27.00;13.90;;;;;;;-3.12;74.42;102370.63;88253;1274;79561;-60
2022/01/24 03:58:46;;;;;;;26.30;15.50;;;;;;;-3.06;74.32;102369.38;88276;1274;82447;-61
2022/01/24 04:00:58;;;;;;;28.70;15.30;;;;;;;-3.00;74.60;102366.35;88299;1274;98509;-69
2022/01/24 04:03:07;;;;;;;30.30;16.10;;;;;;;-2.96;74.21;102367.27;88347;1274;89560;-71
2022/01/24 04:05:35;;;;;;;28.50;15.90;;;;;;;-2.90;74.17;102365.63;88278;1273;95135;-69
2022/01/24 04:07:46;;;;;;;27.70;14.70;;;;;;;-2.84;74.37;102365.05;88259;1274;77793;-69
2022/01/24 04:10:04;;;;;;;28.10;15.30;;;;;;;-2.84;74.23;102367.89;88265;1273;82079;-69
2022/01/24 04:12:16;;;;;;;27.50;14.90;;;;;;;-2.85;74.08;102370.19;88307;1274;98654;-70
2022/01/24 04:14:39;;;;;;;28.30;15.30;;;;;;;-2.91;73.93;102368.13;88305;1274;88088;-70
2022/01/24 04:16:53;;;;;;;24.70;12.50;;;;;;;-2.91;74.08;102371.86;88294;1274;95331;-70
2022/01/24 04:19:26;;;;;;;29.20;15.50;;;;;;;-2.93;73.96;102370.34;88257;1274;79360;-71
2022/01/24 04:21:36;;;;;;;30.10;15.80;;;;;;;-2.93;73.82;102369.81;88296;1274;81247;-61
2022/01/24 04:23:56;;;;;;;28.50;14.80;;;;;;;-2.95;74.21;102371.98;88291;1274;97706;-62
2022/01/24 04:26:05;;;;;;;28.30;14.70;;;;;;;-2.97;73.97;102373.64;88257;1274;89413;-60
2022/01/24 04:28:15;;;;;;;30.10;15.20;;;;;;;-2.97;73.90;102373.65;88250;1273;95576;-61
2022/01/24 04:30:27;;;;;;;28.70;16.10;;;;;;;-3.01;73.92;102376.05;88304;1273;78969;-68
2022/01/24 04:32:37;;;;;;;26.80;14.80;;;;;;;-3.05;73.75;102378.49;88325;1273;81837;-71
2022/01/24 04:34:47;;;;;;;31.90;15.80;;;;;;;-3.07;73.89;102374.52;88274;1274;99649;-71
2022/01/24 04:37:01;;;;;;;32.30;16.90;;;;;;;-3.08;73.72;102375.45;88299;1274;88807;-70
2022/01/24 04:39:11;;;;;;;28.80;15.40;;;;;;;-3.08;73.81;102371.23;85729;1272;3431662;-70
2022/01/24 04:41:24;;;;;;;27.60;15.60;;;;;;;-3.09;73.60;102371.95;88287;1274;77909;-62
2022/01/24 04:43:51;;;;;;;30.70;15.40;;;;;;;-3.10;73.77;102374.30;88279;1274;83476;-61
2022/01/24 04:46:09;;;;;;;31.00;16.70;;;;;;;-3.11;73.81;102380.84;88164;1274;98766;-68
2022/01/24 04:51:07;;;;;;;29.60;15.10;;;;;;;-3.06;73.74;102372.56;88098;1274;95062;-61
2022/01/24 04:53:33;;;;;;;29.40;15.60;;;;;;;-3.00;73.88;102366.70;88290;1274;80690;-62
2022/01/24 04:55:42;;;;;;;32.00;16.00;;;;;;;-2.93;73.87;102373.30;88281;1274;82909;-61
2022/01/24 04:57:52;;;;;;;29.50;14.70;;;;;;;-2.86;73.81;102377.45;88260;1273;97737;-62
2022/01/24 05:00:10;;;;;;;28.30;15.10;;;;;;;-2.85;73.72;102374.98;88292;1274;86684;-62
2022/01/24 05:02:23;;;;;;;28.00;15.30;;;;;;;-2.83;73.60;102379.48;88297;1274;93060;-61
2022/01/24 05:04:33;;;;;;;28.20;14.60;;;;;;;-2.80;73.57;102385.16;88185;1273;80132;-62
2022/01/24 05:06:46;;;;;;;30.00;15.00;;;;;;;-2.78;73.69;102390.23;88292;1274;80752;-69
2022/01/24 05:08:55;;;;;;;27.40;14.50;;;;;;;-2.79;73.70;102390.23;88249;1273;99888;-68
2022/01/24 05:11:16;;;;;;;25.10;14.30;;;;;;;-2.80;73.54;102386.21;88313;1274;87548;-61
2022/01/24 05:23:31;;;;;;;41.10;19.70;;;;;;;-2.94;73.21;102387.11;88250;1274;88360;-69
2022/01/24 05:25:45;;;;;;;37.80;19.50;;;;;;;-2.98;73.31;102385.13;88251;1274;93674;-69
2022/01/24 05:27:58;;;;;;;32.40;17.50;;;;;;;-2.97;73.27;102384.59;88299;1274;78183;-61
2022/01/24 05:30:10;;;;;;;31.70;17.70;;;;;;;-2.99;73.29;102385.14;88286;1274;83616;-70
2022/01/24 05:32:24;;;;;;;30.90;17.10;;;;;;;-3.00;73.32;102393.31;88277;1274;99999;-61
2022/01/24 05:34:34;;;;;;;30.20;15.90;;;;;;;-3.01;73.31;102395.45;88314;1274;88138;-70
2022/01/24 05:36:44;;;;;;;28.10;15.40;;;;;;;-3.01;73.13;102397.75;88273;1274;95786;-70
2022/01/24 05:39:05;;;;;;;29.50;15.70;;;;;;;-2.98;73.13;102395.17;88268;1274;79644;-71
2022/01/24 05:41:18;;;;;;;31.10;16.00;;;;;;;-2.92;73.34;102395.84;88245;1273;81433;-72
2022/01/24 05:43:27;;;;;;;32.70;15.60;;;;;;;-2.86;73.33;102396.49;88275;1273;98863;-69
2022/01/24 05:45:43;;;;;;;27.50;15.10;;;;;;;-2.77;73.37;102403.40;88292;1274;87511;-70
2022/01/24 05:47:55;;;;;;;29.10;16.00;;;;;;;-2.70;73.41;102406.30;88275;1274;94538;-71
2022/01/24 05:50:10;;;;;;;31.50;14.90;;;;;;;-2.62;73.38;102408.30;88302;1274;77862;-70
2022/01/24 05:52:17;;;;;;;;;;;;;;;-2.54;73.27;102411.55;88284;1273;83285;-62
2022/01/24 05:54:30;;;;;;;29.40;15.70;;;;;;;-2.53;73.25;102418.01;88272;1273;98397;-61
2022/01/24 05:56:39;;;;;;;32.00;16.70;;;;;;;-2.52;73.01;102415.17;88250;1273;89205;-61
2022/01/24 05:58:56;;;;;;;33.20;17.60;;;;;;;-2.52;73.26;102414.30;88244;1273;94229;-62
2022/01/24 06:01:05;;;;;;;36.80;17.50;;;;;;;-2.55;73.48;102415.65;88295;1274;78697;-61
2022/01/24 06:03:15;;;;;;;32.20;18.10;;;;;;;-2.58;73.28;102421.04;88271;1274;82542;-62
2022/01/24 06:05:31;;;;;;;31.60;17.40;;;;;;;-2.60;73.01;102420.23;88284;1274;99141;-62
2022/01/24 06:07:44;;;;;;;34.20;17.70;;;;;;;-2.62;73.35;102417.83;88260;1273;87148;-62
2022/01/24 06:09:57;;;;;;;36.00;18.00;;;;;;;-2.64;73.47;102421.63;88251;1273;94889;-61
2022/01/24 06:12:12;;;;;;;36.10;18.20;;;;;;;-2.70;73.13;102417.41;88255;1274;78608;-61
2022/01/24 06:14:21;;;;;;;35.10;19.00;;;;;;;-2.72;73.43;102409.05;88294;1274;82875;-63
2022/01/24 06:16:30;;;;;;;36.10;19.10;;;;;;;-2.74;73.29;102401.36;88312;1274;98737;-68
2022/01/24 06:18:44;;;;;;;34.30;18.60;;;;;;;-2.77;73.10;102402.17;88289;1274;87616;-69
2022/01/24 06:20:54;;;;;;;34.10;18.70;;;;;;;-2.79;73.25;102401.20;88275;1274;94364;-62
2022/01/24 06:23:06;;;;;;;38.00;19.70;;;;;;;-2.83;73.18;102404.67;88313;1274;78222;-66
2022/01/24 06:25:23;;;;;;;39.60;20.00;;;;;;;-2.84;73.20;102408.23;88282;1274;82279;-65
2022/01/24 06:27:32;;;;;;;38.60;19.70;;;;;;;-2.86;73.31;102406.58;88280;1274;100381;-65
2022/01/24 06:29:41;;;;;;;41.00;21.60;;;;;;;-2.87;73.25;102406.98;88257;1273;87771;-64
2022/01/24 06:31:53;;;;;;;43.40;21.70;;;;;;;-2.86;73.24;102411.16;88248;1273;95778;-68
2022/01/24 06:34:03;;;;;;;40.60;20.30;;;;;;;-2.86;73.37;102413.44;88271;1274;79321;-67
2022/01/24 06:36:12;;;;;;;36.00;19.90;;;;;;;-2.81;73.37;102408.31;88273;1273;82529;-64
2022/01/24 06:38:31;;;;;;;40.60;20.70;;;;;;;-2.76;73.37;102405.64;88254;1273;99720;-63
2022/01/24 06:40:40;;;;;;;39.60;21.50;;;;;;;-2.68;73.44;102400.44;88203;1274;88193;-63
2022/01/24 06:42:49;;;;;;;39.70;20.80;;;;;;;-2.64;73.25;102401.34;88251;1273;93114;-62
2022/01/24 06:45:01;;;;;;;40.80;22.60;;;;;;;-2.60;73.43;102402.23;88157;1276;78396;-62
2022/01/24 06:47:13;;;;;;;45.10;21.60;;;;;;;-2.57;73.21;102395.25;88148;1276;83506;-69
2022/01/24 06:49:25;;;;;;;44.30;21.90;;;;;;;-2.58;73.11;102394.75;88263;1273;98902;-68
2022/01/24 06:51:42;;;;;;;42.20;21.00;;;;;;;-2.61;73.06;102397.89;88235;1274;89038;-71
2022/01/24 06:53:55;;;;;;;39.40;20.60;;;;;;;-2.68;72.85;102401.13;88277;1274;93006;-70
2022/01/24 06:56:04;;;;;;;41.70;21.20;;;;;;;-2.74;72.89;102401.52;88268;1273;77440;-72
2022/01/24 06:58:14;;;;;;;39.40;21.00;;;;;;;-2.75;73.16;102404.76;88290;1273;80110;-70
2022/01/24 07:00:29;;;;;;;39.10;21.40;;;;;;;-2.73;73.07;102407.15;88257;1273;99410;-62
2022/01/24 07:02:41;;;;;;;42.00;20.50;;;;;;;-2.73;73.20;102411.89;88283;1273;86126;-63
2022/01/24 07:04:51;;;;;;;40.70;21.10;;;;;;;-2.71;73.07;102414.45;88243;1274;93344;-60
2022/01/24 07:07:04;;;;;;;37.60;20.70;;;;;;;-2.69;73.22;102414.40;88201;1276;79568;-61
2022/01/24 07:09:16;;;;;;;42.00;21.10;;;;;;;-2.70;73.37;102418.67;88285;1273;80496;-61
2022/01/24 07:11:28;;;;;;;42.00;21.70;;;;;;;-2.69;73.24;102420.77;88197;1274;100195;-72
2022/01/24 07:13:40;;;;;;;37.40;19.90;;;;;;;-2.67;73.21;102426.85;88226;1275;86147;-72
2022/01/24 07:15:56;;;;;;;39.90;20.90;;;;;;;-2.66;73.29;102430.88;88222;1275;93299;-61
2022/01/24 07:18:57;;;;;;;37.40;20.60;;;;;;;-2.63;73.16;102428.09;88250;1273;82519;-60
2022/01/24 07:20:46;;;;;;;37.20;19.70;;;;;;;-2.59;73.26;102426.91;88258;1273;82509;-68
2022/01/24 07:22:58;;;;;;;37.90;19.00;;;;;;;-2.54;73.32;102426.88;88199;1275;98518;-72
2022/01/24 07:25:09;;;;;;;33.30;18.10;;;;;;;-2.44;73.37;102423.86;88272;1273;87553;-71
2022/01/24 07:27:22;;;;;;;41.30;20.20;;;;;;;-2.34;73.29;102421.92;88276;1273;95748;-59
2022/01/24 07:29:31;;;;;;;36.40;20.00;;;;;;;-2.23;73.22;102421.84;88248;1274;79224;-63
2022/01/24 07:31:46;;;;;;;38.90;20.10;;;;;;;-2.20;73.10;102425.80;88238;1274;82021;-62
2022/01/24 07:33:56;;;;;;;38.40;20.10;;;;;;;-2.17;73.38;102423.71;88280;1274;99365;-62
2022/01/24 07:36:08;;;;;;;49.60;25.90;;;;;;;-2.12;73.29;102423.19;88289;1274;87114;-71
2022/01/24 07:38:20;;;;;;;67.60;37.20;;;;;;;-2.11;73.26;102424.55;88238;1273;94926;-69
2022/01/24 07:40:31;;;;;;;43.10;21.70;;;;;;;-2.08;73.16;102427.23;88243;1274;77258;-62
2022/01/24 07:42:54;;;;;;;37.80;19.90;;;;;;;-2.05;73.08;102428.88;88232;1274;79444;-60
2022/01/24 07:45:03;;;;;;;40.60;20.40;;;;;;;-2.04;72.93;102430.11;88208;1275;99298;-64
2022/01/24 07:47:16;;;;;;;39.80;21.20;;;;;;;-2.03;72.86;102431.09;88290;1274;86691;-60
2022/01/24 07:49:25;;;;;;;40.60;21.80;;;;;;;-1.99;72.89;102432.00;88231;1273;95336;-63
2022/01/24 07:51:35;;;;;;;41.50;20.80;;;;;;;-1.98;72.97;102431.07;88194;1274;80552;-61
2022/01/24 07:53:48;;;;;;;39.60;20.50;;;;;;;-1.94;72.75;102429.50;88229;1273;83899;-62
2022/01/24 07:56:00;;;;;;;44.20;20.90;;;;;;;-1.93;72.60;102424.20;88237;1274;99708;-67
2022/01/24 07:58:10;;;;;;;41.70;22.20;;;;;;;-1.94;72.69;102427.05;88277;1274;87526;-69
2022/01/24 08:00:28;;;;;;;41.50;21.20;;;;;;;-1.93;72.71;102425.08;88251;1274;91589;-66
2022/01/24 08:02:38;;;;;;;43.30;22.30;;;;;;;-1.93;72.59;102419.96;88204;1274;80958;-63
2022/01/24 08:04:51;;;;;;;41.50;22.10;;;;;;;-1.91;72.82;102421.63;88260;1273;82125;-62
2022/01/24 08:07:04;;;;;;;41.80;22.70;;;;;;;-1.88;72.51;102417.27;88223;1273;97992;-69
2022/01/24 08:09:16;;;;;;;43.10;22.50;;;;;;;-1.90;72.59;102412.58;88240;1274;88799;-69
2022/01/24 08:11:29;;;;;;;38.80;21.30;;;;;;;-1.88;72.68;102420.09;88232;1274;93413;-60
2022/01/24 08:13:39;;;;;;;42.60;22.50;;;;;;;-1.88;72.54;102420.29;88260;1274;80541;-64
2022/01/24 08:15:49;;;;;;;37.60;20.70;;;;;;;-1.89;72.42;102418.35;88246;1274;80258;-62
2022/01/24 08:18:01;;;;;;;40.70;22.70;;;;;;;-1.85;72.44;102417.85;88242;1274;97832;-62
2022/01/24 08:20:17;;;;;;;42.30;21.00;;;;;;;-1.82;72.58;102414.36;88206;1275;86781;-62
2022/01/24 08:22:28;;;;;;;37.90;19.90;;;;;;;-1.74;72.54;102409.84;88216;1274;94565;-61
2022/01/24 08:24:40;;;;;;;36.70;19.90;;;;;;;-1.67;72.23;102413.96;88205;1274;80196;-61
2022/01/24 08:26:53;;;;;;;39.80;22.20;;;;;;;-1.58;72.28;102410.21;88219;1274;82852;-69
2022/01/24 08:29:02;;;;;;;39.20;22.00;;;;;;;-1.50;72.40;102406.36;88219;1274;100353;-69
2022/01/24 08:31:15;;;;;;;43.20;23.00;;;;;;;-1.41;72.42;102405.80;88156;1274;89169;-67
2022/01/24 08:33:27;;;;;;;45.70;23.40;;;;;;;-1.28;72.35;102412.49;88218;1274;93301;-68
2022/01/24 08:35:40;;;;;;;41.60;22.20;;;;;;;-1.23;72.32;102418.27;88202;1274;78855;-63
2022/01/24 08:37:49;;;;;;;43.00;21.40;;;;;;;-1.20;72.36;102417.60;88230;1274;81945;-62
2022/01/24 08:39:59;;;;;;;42.10;23.50;;;;;;;-1.19;71.95;102421.64;88213;1274;97738;-61
2022/01/24 08:42:16;;;;;;;42.30;22.30;;;;;;;-1.22;71.97;102422.13;88247;1272;87908;-69
2022/01/24 08:45:43;;;;;;;39.80;22.00;;;;;;;-1.20;71.80;102419.59;88243;1274;93725;-68
2022/01/24 08:47:06;;;;;;;40.00;21.00;;;;;;;-1.16;71.75;102416.76;88241;1274;77927;-68
2022/01/24 08:49:16;;;;;;;43.30;22.30;;;;;;;-1.13;71.80;102415.75;88269;1274;81936;-68
2022/01/24 08:51:50;;;;;;;42.40;21.60;;;;;;;-1.14;71.48;102411.55;88207;1274;98129;-69
2022/01/24 08:54:03;;;;;;;37.90;20.50;;;;;;;-1.07;71.58;102409.30;88022;1277;87953;-71
2022/01/24 08:56:13;;;;;;;41.30;21.30;;;;;;;-1.04;71.46;102412.86;87946;1279;94506;-69
2022/01/24 08:58:26;;;;;;;43.40;22.00;;;;;;;-1.02;71.50;102408.02;87945;1281;78817;-68
2022/01/24 09:00:36;;;;;;;37.10;21.00;;;;;;;-0.95;71.53;102408.92;88045;1278;81856;-62
2022/01/24 09:02:45;;;;;;;41.20;22.70;;;;;;;-0.89;71.62;102405.69;88018;1278;97736;-62
2022/01/24 09:04:58;;;;;;;41.60;23.10;;;;;;;-0.87;71.48;102400.98;88024;1278;88840;-62
2022/01/24 09:07:11;;;;;;;39.30;21.70;;;;;;;-0.90;71.35;102400.04;87973;1277;95874;-64
2022/01/24 09:09:23;;;;;;;39.90;21.40;;;;;;;-0.88;71.07;102398.16;88012;1277;78982;-63
2022/01/24 09:11:38;;;;;;;40.60;22.20;;;;;;;-0.87;71.06;102404.36;88019;1278;82855;-67
2022/01/24 09:13:51;;;;;;;43.40;22.90;;;;;;;-0.87;71.14;102406.46;88004;1277;100140;-68
2022/01/24 09:16:05;;;;;;;39.80;22.90;;;;;;;-0.87;71.06;102401.86;87964;1281;89472;-69
2022/01/24 09:18:19;;;;;;;40.70;22.40;;;;;;;-0.84;71.12;102405.28;87961;1281;95472;-68
2022/01/24 09:20:28;;;;;;;42.40;23.20;;;;;;;-0.80;71.19;102405.77;88045;1277;78336;-62
2022/01/24 09:22:41;;;;;;;42.70;22.10;;;;;;;-0.83;71.10;102408.24;87995;1280;80384;-65
2022/01/24 09:24:54;;;;;;;40.80;21.00;;;;;;;-0.80;71.11;102405.81;88018;1278;98563;-63
2022/01/24 09:27:08;;;;;;;36.30;20.20;;;;;;;-0.77;71.20;102403.89;88233;1274;87809;-69
2022/01/24 09:29:17;;;;;;;37.90;21.20;;;;;;;-0.71;71.10;102398.47;88230;1274;93916;-67
2022/01/24 09:31:30;;;;;;;38.20;21.00;;;;;;;-0.63;70.94;102397.08;88244;1274;79410;-68
2022/01/24 09:33:39;;;;;;;35.40;19.80;;;;;;;-0.57;71.12;102399.64;88223;1274;80436;-67
2022/01/24 09:35:55;;;;;;;40.90;21.10;;;;;;;-0.49;71.36;102398.58;88252;1273;96838;-62
2022/01/24 09:38:05;;;;;;;38.60;20.40;;;;;;;-0.41;71.18;102396.09;88227;1274;88303;-64
2022/01/24 09:40:19;;;;;;;36.60;20.90;;;;;;;-0.37;71.15;102394.83;88257;1274;95193;-64
2022/01/24 09:42:27;;;;;;;;;;;;;;;-0.32;71.00;102394.40;88275;1274;79263;-74
2022/01/24 09:44:39;;;;;;;38.20;20.60;;;;;;;-0.37;70.60;102391.62;88236;1274;82982;-74
2022/01/24 09:46:52;;;;;;;40.80;20.60;;;;;;;-0.34;70.65;102395.55;88253;1274;99291;-74
2022/01/24 09:49:04;;;;;;;37.90;20.80;;;;;;;-0.32;70.75;102392.44;88232;1274;88711;-75
2022/01/24 09:51:13;;;;;;;39.90;21.10;;;;;;;-0.29;70.58;102392.83;88257;1274;95973;-66
2022/01/24 09:53:24;;;;;;;38.70;21.50;;;;;;;-0.25;70.60;102396.17;88224;1274;77455;-67
2022/01/24 09:55:37;;;;;;;34.60;20.10;;;;;;;-0.23;70.65;102394.30;88264;1274;82582;-66
2022/01/24 09:57:47;;;;;;;38.20;20.80;;;;;;;-0.13;70.80;102392.60;88285;1274;97236;-64
2022/01/24 10:00:00;;;;;;;38.10;21.00;;;;;;;-0.06;70.48;102392.27;88260;1274;87894;-65
2022/01/24 10:02:12;;;;;;;37.50;20.40;;;;;;;0.02;70.69;102390.50;88287;1274;92757;-72
2022/01/24 10:04:25;;;;;;;41.40;21.70;;;;;;;0.13;70.49;102390.11;88253;1274;78143;-71
2022/01/24 10:07:03;;;;;;;43.00;21.60;;;;;;;0.20;70.26;102390.84;88258;1274;81821;-64
2022/01/24 10:09:16;;;;;;;39.80;21.80;;;;;;;0.27;70.18;102388.02;88223;1274;100157;-65
2022/01/24 10:11:28;;;;;;;40.00;22.10;;;;;;;0.33;70.30;102381.68;88230;1274;89583;-64
2022/01/24 10:16:25;;;;;;;39.60;21.50;;;;;;;0.47;69.79;102377.79;88226;1274;78182;-74
2022/01/24 10:18:35;;;;;;;40.70;22.10;;;;;;;0.45;69.97;102377.54;88238;1274;84321;-73
2022/01/24 10:20:48;;;;;;;39.40;20.70;;;;;;;0.53;70.08;102378.38;88279;1274;98196;-64
2022/01/24 10:23:15;;;;;;;38.10;21.20;;;;;;;0.62;70.09;102379.89;88231;1274;89224;-65
2022/01/24 10:25:28;;;;;;;38.00;20.50;;;;;;;0.72;70.09;102375.12;88223;1274;95315;-73
2022/01/24 10:27:37;;;;;;;38.30;21.40;;;;;;;0.84;69.91;102368.11;88255;1274;79507;-73
2022/01/24 10:29:51;;;;;;;41.30;22.80;;;;;;;0.91;69.73;102362.75;88256;1274;80669;-73
2022/01/24 10:32:03;;;;;;;36.10;21.40;;;;;;;0.98;69.41;102363.83;88259;1274;99515;-74
2022/01/24 10:34:23;;;;;;;37.40;21.70;;;;;;;1.05;69.49;102360.39;88233;1274;88124;-72
2022/01/24 10:36:42;;;;;;;35.30;20.50;;;;;;;1.07;69.33;102354.11;88264;1274;93955;-75
2022/01/24 10:38:55;;;;;;;37.80;21.20;;;;;;;1.03;68.60;102350.80;88306;1274;78809;-73
2022/01/24 10:41:18;;;;;;;34.80;20.80;;;;;;;1.03;68.80;102350.63;88253;1274;83457;-73
2022/01/24 10:43:30;;;;;;;36.20;20.30;;;;;;;1.05;68.79;102347.84;88241;1274;98807;-73
2022/01/24 10:45:45;;;;;;;38.40;20.90;;;;;;;1.11;68.81;102345.00;88260;1274;88587;-75
2022/01/24 10:47:56;;;;;;;37.40;20.70;;;;;;;1.23;68.86;102343.83;88234;1274;95523;-74
2022/01/24 10:50:09;;;;;;;34.70;19.90;;;;;;;1.35;68.72;102344.95;88226;1274;81234;-75
2022/01/24 10:52:23;;;;;;;33.80;20.30;;;;;;;1.38;68.56;102346.37;88293;1274;83226;-68
2022/01/24 10:54:33;;;;;;;36.40;20.00;;;;;;;1.36;68.57;102344.02;88208;1274;99744;-69
2022/01/24 10:56:44;;;;;;;34.80;20.10;;;;;;;1.34;68.22;102345.02;88204;1274;90355;-67
2022/01/24 10:58:54;;;;;;;34.00;20.20;;;;;;;1.29;68.27;102342.62;88254;1273;95865;-67
2022/01/24 11:01:07;;;;;;;31.40;18.80;;;;;;;1.24;68.13;102342.73;88298;1273;78097;-67
2022/01/24 11:03:21;;;;;;;33.20;18.30;;;;;;;1.20;68.34;102335.11;88243;1274;83452;-67
2022/01/24 11:05:39;;;;;;;32.60;18.20;;;;;;;1.24;68.33;102338.98;88288;1274;96818;-67
2022/01/24 11:07:58;;;;;;;33.70;18.50;;;;;;;1.27;68.05;102326.59;88199;1275;89626;-69
2022/01/24 11:10:11;;;;;;;32.80;18.60;;;;;;;1.28;67.63;102315.89;88258;1274;95797;-71
2022/01/24 11:12:24;;;;;;;29.70;17.10;;;;;;;1.34;67.87;102315.20;88210;1274;77790;-66
2022/01/24 11:14:36;;;;;;;30.20;18.30;;;;;;;1.31;67.87;102307.75;88257;1273;80894;-67
2022/01/24 11:16:45;;;;;;;30.60;18.60;;;;;;;1.41;67.64;102304.70;88273;1274;98843;-69